createdAt,value
2017-12-29T00:00:08.197Z,80.67
2017-12-29T00:02:36.539Z,80.59
2017-12-29T00:05:04.955Z,80.46
2017-12-29T00:07:33.364Z,80.57
2017-12-29T00:10:01.690Z,80.65
2017-12-29T00:12:30.071Z,80.63
2017-12-29T00:14:58.883Z,80.58
2017-12-29T00:17:27.247Z,80.50
2017-12-29T00:19:55.584Z,80.44
2017-12-29T00:22:23.960Z,80.35
2017-12-29T00:24:52.656Z,79.99
2017-12-29T00:27:21.149Z,79.56
2017-12-29T00:29:49.566Z,79.40
2017-12-29T00:32:17.963Z,79.40
2017-12-29T00:34:47.179Z,79.22
2017-12-29T00:37:15.595Z,79.14
2017-12-29T00:39:44.111Z,78.93
2017-12-29T00:42:12.473Z,78.88
2017-12-29T00:44:40.874Z,78.90
2017-12-29T00:47:09.271Z,78.93
2017-12-29T00:49:37.638Z,78.80
2017-12-29T00:52:05.963Z,78.76
2017-12-29T00:54:34.281Z,78.71
2017-12-29T00:57:03.062Z,78.57
2017-12-29T00:59:31.423Z,78.30
2017-12-29T01:01:59.829Z,78.05
2017-12-29T01:04:28.196Z,77.58
2017-12-29T01:06:57.355Z,77.41
2017-12-29T01:09:25.733Z,77.37
2017-12-29T01:11:54.703Z,77.46
2017-12-29T01:14:23.083Z,77.44
2017-12-29T01:16:51.425Z,77.28
2017-12-29T01:19:19.792Z,77.23
2017-12-29T01:21:48.889Z,77.19
2017-12-29T01:24:17.817Z,77.34
2017-12-29T01:26:46.165Z,77.45
2017-12-29T01:29:16.025Z,77.50
2017-12-29T01:31:44.428Z,77.44
2017-12-29T01:34:12.795Z,77.47
2017-12-29T01:36:41.281Z,77.50
2017-12-29T01:39:09.713Z,77.37
2017-12-29T01:41:38.842Z,77.27
2017-12-29T01:44:07.233Z,77.33
2017-12-29T01:46:35.621Z,77.52
2017-12-29T01:49:04.021Z,77.60
2017-12-29T01:51:32.375Z,77.80
2017-12-29T01:54:00.701Z,77.94
2017-12-29T01:56:29.879Z,78.02
2017-12-29T01:58:58.225Z,77.85
2017-12-29T02:01:26.704Z,77.75
2017-12-29T02:03:55.083Z,77.67
2017-12-29T02:06:23.478Z,77.70
2017-12-29T02:08:51.855Z,77.73
2017-12-29T02:11:20.297Z,77.75
2017-12-29T02:13:48.634Z,77.69
2017-12-29T02:16:17.008Z,77.71
2017-12-29T02:18:45.396Z,77.59
2017-12-29T02:21:13.814Z,77.71
2017-12-29T02:23:42.168Z,77.69
2017-12-29T02:26:11.416Z,77.75
2017-12-29T02:28:40.540Z,77.71
2017-12-29T02:31:09.676Z,77.70
2017-12-29T02:33:38.001Z,77.59
2017-12-29T02:36:06.398Z,77.61
2017-12-29T02:38:35.562Z,77.67
2017-12-29T02:41:03.928Z,77.56
2017-12-29T02:43:32.241Z,77.48
2017-12-29T02:46:00.603Z,77.45
2017-12-29T02:48:28.992Z,77.35
2017-12-29T02:50:58.125Z,77.30
2017-12-29T02:53:26.515Z,77.53
2017-12-29T02:55:55.610Z,77.57
2017-12-29T02:58:23.977Z,77.60
2017-12-29T03:00:53.099Z,77.56
2017-12-29T03:03:21.457Z,77.63
2017-12-29T03:05:50.535Z,77.74
2017-12-29T03:08:18.878Z,77.80
2017-12-29T03:10:47.272Z,77.89
2017-12-29T03:13:15.594Z,77.91
2017-12-29T03:15:44.829Z,78.03
2017-12-29T03:18:13.171Z,77.97
2017-12-29T03:20:41.484Z,78.01
2017-12-29T03:23:09.856Z,77.91
2017-12-29T03:25:38.246Z,77.94
2017-12-29T03:28:06.640Z,78.05
2017-12-29T03:30:35.021Z,78.09
2017-12-29T03:33:03.403Z,78.14
2017-12-29T03:35:31.757Z,78.24
2017-12-29T03:38:00.889Z,78.21
2017-12-29T03:40:29.271Z,78.22
2017-12-29T03:42:57.635Z,78.25
2017-12-29T03:45:25.982Z,78.40
2017-12-29T03:47:54.347Z,78.45
2017-12-29T03:50:22.743Z,78.42
2017-12-29T03:52:51.078Z,78.49
2017-12-29T03:55:19.452Z,78.56
2017-12-29T03:57:47.793Z,78.58
2017-12-29T04:00:16.171Z,78.60
2017-12-29T04:02:45.364Z,78.62
2017-12-29T04:05:13.713Z,78.73
2017-12-29T04:07:42.099Z,78.75
2017-12-29T04:10:10.441Z,78.68
2017-12-29T04:12:38.828Z,78.70
2017-12-29T04:15:07.210Z,78.67
2017-12-29T04:17:35.555Z,78.68
2017-12-29T04:20:03.922Z,78.89
2017-12-29T04:22:33.078Z,79.22
2017-12-29T04:25:01.408Z,79.51
2017-12-29T04:27:29.774Z,79.68
2017-12-29T04:29:58.155Z,79.73
2017-12-29T04:32:26.567Z,79.83
2017-12-29T04:34:54.874Z,79.87
2017-12-29T04:37:23.253Z,79.99
2017-12-29T04:39:52.416Z,80.16
2017-12-29T04:42:20.769Z,80.23
2017-12-29T04:44:49.147Z,80.30
2017-12-29T04:47:17.485Z,80.46
2017-12-29T04:49:45.845Z,80.85
2017-12-29T04:52:14.209Z,81.24
2017-12-29T04:54:42.510Z,81.41
2017-12-29T04:57:10.918Z,81.48
2017-12-29T04:59:39.319Z,81.61
2017-12-29T05:02:08.533Z,81.79
2017-12-29T05:04:36.863Z,82.01
2017-12-29T05:07:05.202Z,82.24
2017-12-29T05:09:33.506Z,82.48
2017-12-29T05:12:01.854Z,82.72
2017-12-29T05:14:30.169Z,82.96
2017-12-29T05:16:58.478Z,83.05
2017-12-29T05:19:26.853Z,83.26
2017-12-29T05:21:55.226Z,83.44
2017-12-29T05:24:23.648Z,83.65
2017-12-29T05:26:52.114Z,83.86
2017-12-29T05:29:20.479Z,84.03
2017-12-29T05:31:48.833Z,84.23
2017-12-29T05:34:17.186Z,84.48
2017-12-29T05:36:45.573Z,84.57
2017-12-29T05:39:13.910Z,84.70
2017-12-29T05:41:42.260Z,84.86
2017-12-29T05:44:10.605Z,85.06
2017-12-29T05:46:39.705Z,85.31
2017-12-29T05:49:08.036Z,85.48
2017-12-29T05:51:36.459Z,85.75
2017-12-29T05:54:05.552Z,85.86
2017-12-29T05:56:35.428Z,85.71
2017-12-29T05:59:03.768Z,85.63
2017-12-29T06:01:32.144Z,85.61
2017-12-29T06:04:01.298Z,85.69
2017-12-29T06:06:30.316Z,85.85
2017-12-29T06:08:58.669Z,86.03
2017-12-29T06:11:27.006Z,86.24
2017-12-29T06:13:56.102Z,86.35
2017-12-29T06:16:25.219Z,86.43
2017-12-29T06:18:54.384Z,86.49
2017-12-29T06:21:22.728Z,86.54
2017-12-29T06:23:51.058Z,86.69
2017-12-29T06:26:20.190Z,86.68
2017-12-29T06:28:48.528Z,86.72
2017-12-29T06:31:16.890Z,86.87
2017-12-29T06:33:45.234Z,86.95
2017-12-29T06:36:13.737Z,86.92
2017-12-29T06:38:42.078Z,87.08
2017-12-29T06:41:11.207Z,87.09
2017-12-29T06:43:39.600Z,87.14
2017-12-29T06:46:08.012Z,87.23
2017-12-29T06:48:36.386Z,87.37
2017-12-29T06:51:05.521Z,87.42
2017-12-29T06:53:33.966Z,87.49
2017-12-29T06:56:02.294Z,87.53
2017-12-29T06:58:30.694Z,87.62
2017-12-29T07:00:59.078Z,87.67
2017-12-29T07:03:27.414Z,87.74
2017-12-29T07:05:56.554Z,87.83
2017-12-29T07:08:24.906Z,87.87
2017-12-29T07:10:54.900Z,87.86
2017-12-29T07:13:24.035Z,87.87
2017-12-29T07:15:52.427Z,87.89
2017-12-29T07:18:20.814Z,87.97
2017-12-29T07:20:49.196Z,88.00
2017-12-29T07:23:17.606Z,88.09
2017-12-29T07:25:45.983Z,88.06
2017-12-29T07:28:14.325Z,88.12
2017-12-29T07:30:43.472Z,88.20
2017-12-29T07:33:11.920Z,88.22
2017-12-29T07:35:40.356Z,88.29
2017-12-29T07:38:08.736Z,88.31
2017-12-29T07:40:37.855Z,88.30
2017-12-29T07:43:06.969Z,88.32
2017-12-29T07:45:36.086Z,88.34
2017-12-29T07:48:04.569Z,88.32
2017-12-29T07:50:32.932Z,88.29
2017-12-29T07:53:01.358Z,88.31
2017-12-29T07:55:29.686Z,88.30
2017-12-29T07:57:58.825Z,88.31
2017-12-29T08:00:27.196Z,88.33
2017-12-29T08:02:56.574Z,88.32
2017-12-29T08:05:24.960Z,88.25
2017-12-29T08:07:53.351Z,88.25
2017-12-29T08:10:22.510Z,88.28
2017-12-29T08:12:51.027Z,88.31
2017-12-29T08:15:19.384Z,88.24
2017-12-29T08:17:47.720Z,88.20
2017-12-29T08:20:16.134Z,88.19
2017-12-29T08:22:44.454Z,88.18
2017-12-29T08:25:13.609Z,88.07
2017-12-29T08:27:42.802Z,88.01
2017-12-29T08:30:11.206Z,87.95
2017-12-29T08:32:39.546Z,87.87
2017-12-29T08:35:08.031Z,87.80
2017-12-29T08:37:36.406Z,87.74
2017-12-29T08:40:08.088Z,87.68
2017-12-29T08:42:36.504Z,87.58
2017-12-29T08:45:04.922Z,87.46
2017-12-29T08:47:34.332Z,87.38
2017-12-29T08:50:02.823Z,87.40
2017-12-29T08:52:31.222Z,87.32
2017-12-29T08:54:59.570Z,87.03
2017-12-29T08:57:28.924Z,86.84
2017-12-29T08:59:57.322Z,86.63
2017-12-29T09:02:25.734Z,86.44
2017-12-29T09:04:54.986Z,86.37
2017-12-29T09:07:23.376Z,86.26
2017-12-29T09:09:51.950Z,86.17
2017-12-29T09:12:20.268Z,86.04
2017-12-29T09:14:48.694Z,85.89
2017-12-29T09:17:17.024Z,85.75
2017-12-29T09:19:45.468Z,85.67
2017-12-29T09:22:13.794Z,85.66
2017-12-29T09:24:42.948Z,85.64
2017-12-29T09:27:11.282Z,85.63
2017-12-29T09:29:40.443Z,85.50
2017-12-29T09:32:09.640Z,85.33
2017-12-29T09:34:38.034Z,85.05
2017-12-29T09:37:06.450Z,84.86
2017-12-29T09:39:34.825Z,84.71
2017-12-29T09:42:03.976Z,84.52
2017-12-29T09:44:32.316Z,84.49
2017-12-29T09:47:01.509Z,84.43
2017-12-29T09:49:30.651Z,84.49
2017-12-29T09:51:58.982Z,84.42
2017-12-29T09:54:28.157Z,84.23
2017-12-29T09:56:56.707Z,84.05
2017-12-29T09:59:25.120Z,83.97
2017-12-29T10:01:53.572Z,83.71
2017-12-29T10:04:21.902Z,83.69
2017-12-29T10:06:51.154Z,83.43
2017-12-29T10:09:19.610Z,83.26
2017-12-29T10:11:47.958Z,83.07
2017-12-29T10:14:16.405Z,82.98
2017-12-29T10:16:44.745Z,83.02
2017-12-29T10:19:13.084Z,82.93
2017-12-29T10:21:41.384Z,82.83
2017-12-29T10:24:09.825Z,82.69
2017-12-29T10:26:38.299Z,82.71
2017-12-29T10:29:06.727Z,82.49
2017-12-29T10:31:35.790Z,82.29
2017-12-29T10:34:04.252Z,82.10
2017-12-29T10:36:33.355Z,81.91
2017-12-29T10:39:01.892Z,81.75
2017-12-29T10:41:30.210Z,81.52
2017-12-29T10:43:58.617Z,81.45
2017-12-29T10:46:27.003Z,81.36
2017-12-29T10:48:55.346Z,81.26
2017-12-29T10:51:23.725Z,81.25
2017-12-29T10:53:52.992Z,81.16
2017-12-29T10:56:21.365Z,81.23
2017-12-29T10:58:49.808Z,81.21
2017-12-29T11:01:18.176Z,81.20
2017-12-29T11:03:47.337Z,81.07
2017-12-29T11:06:15.674Z,80.91
2017-12-29T11:08:44.770Z,80.82
2017-12-29T11:11:13.213Z,80.71
2017-12-29T11:13:41.540Z,80.78
2017-12-29T11:16:11.506Z,80.69
2017-12-29T11:18:40.709Z,80.59
2017-12-29T11:21:09.195Z,80.46
2017-12-29T11:23:37.574Z,80.39
2017-12-29T11:26:05.969Z,80.37
2017-12-29T11:28:34.349Z,80.43
2017-12-29T11:31:02.690Z,80.57
2017-12-29T11:33:31.080Z,80.76
2017-12-29T11:35:59.509Z,81.08
2017-12-29T11:38:27.892Z,81.39
2017-12-29T11:40:56.273Z,81.77
2017-12-29T11:43:24.629Z,82.08
2017-12-29T11:45:53.059Z,82.39
2017-12-29T11:48:22.194Z,82.63
2017-12-29T11:50:50.594Z,82.93
2017-12-29T11:53:19.625Z,83.23
2017-12-29T11:55:48.734Z,83.50
2017-12-29T11:58:17.865Z,83.76
2017-12-29T12:00:46.284Z,84.00
2017-12-29T12:03:14.628Z,84.19
2017-12-29T12:05:42.988Z,84.33
2017-12-29T12:08:12.009Z,84.53
2017-12-29T12:10:40.446Z,84.69
2017-12-29T12:13:08.803Z,84.72
2017-12-29T12:15:38.106Z,84.92
2017-12-29T12:18:06.559Z,85.07
2017-12-29T12:20:34.923Z,85.20
2017-12-29T12:23:04.329Z,85.35
2017-12-29T12:25:32.766Z,85.54
2017-12-29T12:28:01.142Z,85.69
2017-12-29T12:30:29.475Z,85.81
2017-12-29T12:32:57.852Z,85.99
2017-12-29T12:35:27.082Z,86.11
2017-12-29T12:37:55.417Z,86.20
2017-12-29T12:40:24.525Z,86.36
2017-12-29T12:42:52.871Z,86.38
2017-12-29T12:45:21.203Z,86.43
2017-12-29T12:47:49.650Z,86.46
2017-12-29T12:50:18.056Z,86.53
2017-12-29T12:52:47.441Z,86.57
2017-12-29T12:55:15.807Z,86.63
2017-12-29T12:57:44.152Z,86.70
2017-12-29T13:00:12.523Z,86.84
2017-12-29T13:02:40.894Z,86.91
2017-12-29T13:05:09.223Z,86.98
2017-12-29T13:07:37.583Z,87.06
2017-12-29T13:10:06.437Z,87.11
2017-12-29T13:12:34.813Z,87.18
2017-12-29T13:15:03.954Z,87.24
2017-12-29T13:17:34.615Z,87.29
2017-12-29T13:20:03.503Z,87.37
2017-12-29T13:22:31.942Z,87.41
2017-12-29T13:25:01.981Z,87.33
2017-12-29T13:27:31.253Z,87.44
2017-12-29T13:30:00.424Z,87.55
2017-12-29T13:32:28.819Z,87.61
2017-12-29T13:34:58.293Z,87.69
2017-12-29T13:37:26.736Z,87.68
2017-12-29T13:39:58.129Z,87.89
2017-12-29T13:42:26.437Z,87.90
2017-12-29T13:44:55.601Z,87.93
2017-12-29T13:47:23.978Z,87.96
2017-12-29T13:49:52.317Z,88.09
2017-12-29T13:52:21.448Z,88.14
2017-12-29T13:54:49.820Z,88.14
2017-12-29T13:57:18.157Z,88.31
2017-12-29T13:59:46.554Z,88.38
2017-12-29T14:02:15.771Z,88.31
2017-12-29T14:04:44.871Z,88.40
2017-12-29T14:07:13.275Z,88.59
2017-12-29T14:09:41.681Z,88.66
2017-12-29T14:12:10.065Z,88.72
2017-12-29T14:14:38.475Z,88.74
2017-12-29T14:17:06.934Z,88.72
2017-12-29T14:19:35.371Z,88.81
2017-12-29T14:22:03.744Z,88.88
2017-12-29T14:24:32.122Z,88.91
2017-12-29T14:27:00.479Z,88.96
2017-12-29T14:29:28.803Z,89.00
2017-12-29T14:31:57.165Z,89.07
2017-12-29T14:34:27.305Z,89.12
2017-12-29T14:36:55.629Z,89.16
2017-12-29T14:39:24.921Z,89.15
2017-12-29T14:41:53.246Z,89.16
2017-12-29T14:44:21.606Z,89.20
2017-12-29T14:46:50.623Z,89.23
2017-12-29T14:49:19.738Z,89.27
2017-12-29T14:51:48.110Z,89.29
2017-12-29T14:54:17.305Z,89.35
2017-12-29T14:56:47.076Z,89.40
2017-12-29T14:59:15.480Z,89.38
2017-12-29T15:01:43.819Z,89.43
2017-12-29T15:04:12.228Z,89.48
2017-12-29T15:06:40.577Z,89.53
2017-12-29T15:09:08.962Z,89.57
2017-12-29T15:11:37.665Z,89.65
2017-12-29T15:14:06.105Z,89.69
2017-12-29T15:16:35.290Z,89.70
2017-12-29T15:19:03.645Z,89.71
2017-12-29T15:21:32.003Z,89.80
2017-12-29T15:24:00.876Z,89.83
2017-12-29T15:26:30.167Z,89.87
2017-12-29T15:28:59.323Z,89.89
2017-12-29T15:31:28.535Z,89.87
2017-12-29T15:33:57.697Z,89.92
2017-12-29T15:36:26.813Z,89.95
2017-12-29T15:38:55.198Z,89.99
2017-12-29T15:41:24.422Z,90.01
2017-12-29T15:43:53.529Z,90.05
2017-12-29T15:46:22.675Z,90.05
2017-12-29T15:48:51.085Z,90.07
2017-12-29T15:51:24.047Z,90.09
2017-12-29T15:53:52.622Z,90.09
2017-12-29T15:56:21.805Z,90.13
2017-12-29T15:58:50.923Z,90.19
2017-12-29T16:01:26.063Z,90.20
2017-12-29T16:03:55.035Z,90.17
2017-12-29T16:06:23.820Z,90.22
2017-12-29T16:08:53.640Z,90.24
2017-12-29T16:11:22.264Z,90.25
2017-12-29T16:13:50.696Z,90.26
2017-12-29T16:16:19.935Z,90.30
2017-12-29T16:18:49.703Z,90.34
2017-12-29T16:21:18.853Z,90.40
2017-12-29T16:23:48.794Z,90.40
2017-12-29T16:26:17.292Z,90.51
2017-12-29T16:28:46.203Z,90.55
2017-12-29T16:31:15.251Z,90.54
2017-12-29T16:33:44.887Z,90.51
2017-12-29T16:36:13.282Z,90.54
2017-12-29T16:38:41.649Z,90.55
2017-12-29T16:41:10.072Z,90.55
2017-12-29T16:43:38.439Z,90.58
2017-12-29T16:46:07.483Z,90.65
2017-12-29T16:48:35.876Z,90.72
2017-12-29T16:51:04.241Z,90.79
2017-12-29T16:53:32.831Z,90.80
2017-12-29T16:56:01.234Z,90.84
2017-12-29T16:58:30.426Z,90.91
2017-12-29T17:01:00.210Z,90.91
2017-12-29T17:03:28.596Z,90.91
2017-12-29T17:05:58.018Z,90.94
2017-12-29T17:08:26.355Z,91.01
2017-12-29T17:10:54.710Z,91.24
2017-12-29T17:13:23.100Z,90.98
2017-12-29T17:15:51.704Z,90.87
2017-12-29T17:18:21.815Z,90.89
2017-12-29T17:20:50.930Z,90.93
2017-12-29T17:23:21.136Z,91.01
2017-12-29T17:25:53.136Z,91.05
2017-12-29T17:28:21.509Z,91.09
2017-12-29T17:30:50.027Z,91.18
2017-12-29T17:33:18.372Z,91.28
2017-12-29T17:35:46.828Z,91.25
2017-12-29T17:38:15.262Z,91.21
2017-12-29T17:40:43.646Z,91.17
2017-12-29T17:43:12.674Z,91.22
2017-12-29T17:45:41.036Z,91.27
2017-12-29T17:48:09.386Z,91.29
2017-12-29T17:50:37.702Z,91.29
2017-12-29T17:53:06.890Z,91.26
2017-12-29T17:55:35.276Z,91.22
2017-12-29T17:58:03.684Z,91.25
2017-12-29T18:00:32.106Z,91.31
2017-12-29T18:03:01.190Z,91.37
2017-12-29T18:05:29.644Z,91.31
2017-12-29T18:07:57.945Z,91.22
2017-12-29T18:10:26.380Z,91.06
2017-12-29T18:12:54.824Z,90.89
2017-12-29T18:15:24.274Z,90.74
2017-12-29T18:17:53.346Z,90.48
2017-12-29T18:20:21.886Z,90.30
2017-12-29T18:22:50.870Z,90.11
2017-12-29T18:25:19.220Z,89.82
2017-12-29T18:27:47.682Z,89.49
2017-12-29T18:30:16.052Z,89.12
2017-12-29T18:32:45.508Z,88.91
2017-12-29T18:35:14.002Z,88.86
2017-12-29T18:37:42.403Z,88.55
2017-12-29T18:40:10.948Z,88.24
2017-12-29T18:42:39.329Z,88.03
2017-12-29T18:45:07.813Z,87.80
2017-12-29T18:47:36.184Z,87.32
2017-12-29T18:50:04.615Z,87.11
2017-12-29T18:52:32.968Z,86.86
2017-12-29T18:55:01.334Z,86.56
2017-12-29T18:57:29.974Z,86.31
2017-12-29T18:59:58.322Z,85.97
2017-12-29T19:02:26.690Z,85.94
2017-12-29T19:04:55.128Z,85.57
2017-12-29T19:07:23.506Z,85.36
2017-12-29T19:09:51.975Z,85.27
2017-12-29T19:12:20.470Z,85.23
2017-12-29T19:14:48.766Z,85.00
2017-12-29T19:17:17.145Z,84.78
2017-12-29T19:19:48.509Z,84.67
2017-12-29T19:22:16.814Z,84.71
2017-12-29T19:24:46.362Z,84.53
2017-12-29T19:27:15.470Z,84.37
2017-12-29T19:29:43.954Z,84.12
2017-12-29T19:32:12.826Z,83.73
2017-12-29T19:34:43.676Z,83.64
2017-12-29T19:37:12.233Z,83.46
2017-12-29T19:39:42.853Z,83.04
2017-12-29T19:42:11.278Z,82.67
2017-12-29T19:44:39.611Z,82.62
2017-12-29T19:47:09.225Z,81.70
2017-12-29T19:49:38.366Z,80.70
2017-12-29T19:52:06.858Z,80.55
2017-12-29T19:54:35.961Z,80.24
2017-12-29T19:57:04.376Z,79.89
2017-12-29T19:59:33.219Z,79.85
2017-12-29T20:02:01.628Z,79.66
2017-12-29T20:04:30.069Z,79.58
2017-12-29T20:06:58.402Z,79.67
2017-12-29T20:09:27.454Z,79.44
2017-12-29T20:11:55.968Z,79.30
2017-12-29T20:14:24.296Z,78.94
2017-12-29T20:16:54.071Z,79.07
2017-12-29T20:19:23.193Z,78.41
2017-12-29T20:21:52.948Z,78.04
2017-12-29T20:24:22.358Z,78.10
2017-12-29T20:26:52.380Z,78.11
2017-12-29T20:29:21.675Z,78.04
2017-12-29T20:31:51.197Z,78.18
2017-12-29T20:34:19.780Z,78.67
2017-12-29T20:36:48.175Z,78.71
2017-12-29T20:39:16.699Z,78.54
2017-12-29T20:41:45.534Z,78.46
2017-12-29T20:44:13.953Z,78.44
2017-12-29T20:46:42.354Z,78.42
2017-12-29T20:49:10.747Z,78.35
2017-12-29T20:51:39.942Z,78.20
2017-12-29T20:54:08.252Z,77.90
2017-12-29T20:56:36.765Z,78.21
2017-12-29T20:59:05.120Z,77.33
2017-12-29T21:01:33.441Z,77.25
2017-12-29T21:04:02.498Z,77.01
2017-12-29T21:06:31.486Z,76.63
2017-12-29T21:08:59.943Z,76.56
2017-12-29T21:11:28.242Z,76.64
2017-12-29T21:13:57.353Z,76.98
2017-12-29T21:16:26.529Z,77.85
2017-12-29T21:18:55.075Z,78.63
2017-12-29T21:21:23.388Z,79.15
2017-12-29T21:23:53.561Z,79.31
2017-12-29T21:26:22.765Z,79.59
2017-12-29T21:28:51.082Z,79.64
2017-12-29T21:31:20.339Z,79.69
2017-12-29T21:33:49.561Z,79.85
2017-12-29T21:36:18.719Z,80.32
2017-12-29T21:38:47.835Z,80.25
2017-12-29T21:41:16.259Z,80.24
2017-12-29T21:43:44.653Z,80.08
2017-12-29T21:46:13.779Z,79.79
2017-12-29T21:48:42.886Z,79.56
2017-12-29T21:51:12.236Z,79.28
2017-12-29T21:53:40.614Z,79.03
2017-12-29T21:56:09.031Z,78.84
2017-12-29T21:58:37.448Z,78.85
2017-12-29T22:01:05.835Z,78.88
2017-12-29T22:03:34.180Z,78.89
2017-12-29T22:06:02.763Z,79.10
2017-12-29T22:08:31.131Z,79.16
2017-12-29T22:10:59.454Z,79.15
2017-12-29T22:13:28.530Z,79.24
2017-12-29T22:15:57.689Z,79.41
2017-12-29T22:18:26.993Z,79.51
2017-12-29T22:20:55.454Z,79.84
2017-12-29T22:23:23.943Z,79.91
2017-12-29T22:25:52.394Z,79.83
2017-12-29T22:28:20.875Z,79.68
2017-12-29T22:30:50.031Z,79.71
2017-12-29T22:33:18.449Z,79.62
2017-12-29T22:35:47.701Z,79.44
2017-12-29T22:38:16.033Z,79.55
2017-12-29T22:40:44.493Z,79.21
2017-12-29T22:43:12.909Z,78.98
2017-12-29T22:45:42.140Z,78.74
2017-12-29T22:48:10.515Z,78.27
2017-12-29T22:50:38.862Z,78.12
2017-12-29T22:53:07.253Z,77.89
2017-12-29T22:55:35.632Z,78.16
2017-12-29T22:58:04.549Z,78.66
2017-12-29T23:00:32.903Z,78.82
2017-12-29T23:03:01.288Z,78.73
2017-12-29T23:05:29.645Z,78.67
2017-12-29T23:07:58.045Z,78.61
2017-12-29T23:10:26.867Z,78.51
2017-12-29T23:12:55.258Z,78.32
2017-12-29T23:15:23.574Z,78.67
2017-12-29T23:17:51.905Z,77.85
2017-12-29T23:20:20.326Z,77.75
2017-12-29T23:22:48.751Z,77.45
2017-12-29T23:25:17.091Z,77.40
2017-12-29T23:27:45.395Z,77.30
2017-12-29T23:30:13.733Z,77.28
2017-12-29T23:32:42.091Z,76.94
2017-12-29T23:35:10.511Z,76.65
2017-12-29T23:37:39.201Z,76.51
2017-12-29T23:40:07.603Z,76.72
2017-12-29T23:42:35.989Z,76.73
2017-12-29T23:45:04.336Z,76.50
2017-12-29T23:47:32.647Z,76.32
2017-12-29T23:50:01.023Z,76.25
2017-12-29T23:52:29.374Z,76.38
2017-12-29T23:54:57.730Z,76.19
2017-12-29T23:57:26.831Z,75.86
2017-12-29T23:59:55.925Z,75.61
